createdAt,value
2023-01-01T00:00:13.229Z,13.87
2023-01-01T00:02:41.257Z,13.89
2023-01-01T00:05:09.830Z,13.84
2023-01-01T00:07:39.301Z,13.83
2023-01-01T00:10:25.553Z,13.82
2023-01-01T00:12:53.660Z,13.84
2023-01-01T00:15:22.028Z,13.85
2023-01-01T00:17:50.099Z,13.91
2023-01-01T00:20:18.171Z,13.87
2023-01-01T00:22:56.117Z,13.89
2023-01-01T00:25:25.334Z,13.83
2023-01-01T00:27:53.313Z,13.86
2023-01-01T00:30:21.652Z,13.79
2023-01-01T00:32:54.946Z,13.79
2023-01-01T00:35:27.653Z,13.79
2023-01-01T00:37:57.638Z,13.83
2023-01-01T00:40:25.820Z,13.80
2023-01-01T00:42:53.941Z,13.78
2023-01-01T00:45:23.164Z,13.82
2023-01-01T00:47:51.776Z,13.76
2023-01-01T00:50:20.355Z,13.74
2023-01-01T00:52:49.172Z,13.68
2023-01-01T00:55:19.072Z,13.63
2023-01-01T00:57:47.165Z,13.65
2023-01-01T01:00:16.540Z,13.51
2023-01-01T01:02:48.893Z,13.48
2023-01-01T01:05:17.240Z,13.49
2023-01-01T01:07:45.408Z,13.37
2023-01-01T01:10:13.469Z,13.51
2023-01-01T01:12:43.287Z,13.39
2023-01-01T01:15:11.997Z,13.42
2023-01-01T01:17:39.990Z,13.33
2023-01-01T01:20:09.623Z,13.33
2023-01-01T01:22:38.202Z,13.30
2023-01-01T01:25:06.785Z,13.26
2023-01-01T01:27:34.819Z,13.26
2023-01-01T01:30:04.668Z,13.23
2023-01-01T01:32:32.933Z,13.28
2023-01-01T01:35:01.248Z,13.27
2023-01-01T01:37:29.918Z,13.24
2023-01-01T01:39:57.872Z,13.24
2023-01-01T01:42:25.844Z,13.30
2023-01-01T01:44:58.492Z,13.25
2023-01-01T01:47:31.236Z,13.36
2023-01-01T01:50:02.671Z,13.29
2023-01-01T01:52:30.733Z,13.27
2023-01-01T01:54:58.750Z,13.30
2023-01-01T01:57:27.017Z,13.24
2023-01-01T01:59:55.682Z,13.24
2023-01-01T02:02:25.275Z,13.29
2023-01-01T02:04:55.494Z,13.21
2023-01-01T02:07:23.551Z,13.20
2023-01-01T02:09:51.492Z,13.14
2023-01-01T02:12:19.592Z,13.19
2023-01-01T02:14:47.570Z,13.09
2023-01-01T02:17:17.259Z,13.14
2023-01-01T02:19:46.409Z,13.10
2023-01-01T02:22:19.346Z,13.11
2023-01-01T02:24:55.990Z,13.09
2023-01-01T02:27:30.218Z,13.08
2023-01-01T02:30:02.797Z,13.06
2023-01-01T02:32:32.501Z,13.07
2023-01-01T02:35:24.413Z,13.09
2023-01-01T02:37:55.119Z,13.02
2023-01-01T02:40:23.950Z,13.03
2023-01-01T02:42:52.016Z,13.04
2023-01-01T02:45:21.553Z,13.08
2023-01-01T02:47:49.750Z,13.09
2023-01-01T02:50:20.355Z,13.09
2023-01-01T02:52:57.271Z,13.13
2023-01-01T02:55:37.989Z,13.06
2023-01-01T02:58:23.681Z,13.07
2023-01-01T03:00:57.057Z,13.11
2023-01-01T03:03:28.681Z,13.13
2023-01-01T03:06:15.199Z,13.12
2023-01-01T03:08:47.596Z,13.18
2023-01-01T03:11:16.505Z,13.12
2023-01-01T03:13:48.845Z,13.12
2023-01-01T03:16:19.601Z,13.10
2023-01-01T03:18:52.229Z,13.21
2023-01-01T03:21:22.460Z,13.17
2023-01-01T03:23:54.962Z,13.19
2023-01-01T03:26:23.101Z,13.03
2023-01-01T03:28:52.758Z,13.08
2023-01-01T03:31:23.247Z,13.05
2023-01-01T03:33:53.073Z,13.10
2023-01-01T03:36:23.002Z,13.10
2023-01-01T03:38:52.817Z,13.14
2023-01-01T03:41:37.869Z,13.20
2023-01-01T03:44:06.633Z,13.18
2023-01-01T03:46:36.760Z,13.12
2023-01-01T03:49:06.665Z,13.21
2023-01-01T03:51:43.896Z,13.10
2023-01-01T03:54:15.061Z,13.07
2023-01-01T03:56:45.672Z,13.15
2023-01-01T03:59:15.971Z,13.17
2023-01-01T04:01:46.648Z,13.15
2023-01-01T04:04:14.759Z,13.17
2023-01-01T04:06:42.803Z,13.16
2023-01-01T04:09:11.740Z,13.18
2023-01-01T04:11:57.202Z,13.18
2023-01-01T04:14:29.887Z,13.17
2023-01-01T04:16:59.785Z,13.13
2023-01-01T04:19:27.774Z,13.13
2023-01-01T04:21:55.833Z,13.15
2023-01-01T04:24:24.264Z,13.16
2023-01-01T04:26:52.986Z,13.16
2023-01-01T04:29:20.994Z,13.19
2023-01-01T04:31:49.751Z,13.16
2023-01-01T04:34:19.264Z,13.20
2023-01-01T04:36:47.249Z,13.24
2023-01-01T04:39:15.305Z,13.24
2023-01-01T04:41:43.372Z,13.16
2023-01-01T04:44:11.802Z,13.14
2023-01-01T04:46:39.894Z,13.10
2023-01-01T04:49:07.956Z,13.11
2023-01-01T04:51:37.415Z,13.17
2023-01-01T04:54:06.129Z,13.13
2023-01-01T04:56:34.224Z,13.17
2023-01-01T04:59:02.316Z,13.14
2023-01-01T05:01:30.723Z,13.17
2023-01-01T05:03:59.696Z,13.12
2023-01-01T05:06:27.727Z,13.11
2023-01-01T05:08:57.397Z,13.16
2023-01-01T05:11:25.927Z,13.04
2023-01-01T05:13:55.622Z,13.09
2023-01-01T05:16:24.779Z,13.06
2023-01-01T05:18:52.945Z,12.99
2023-01-01T05:21:21.690Z,13.04
2023-01-01T05:23:49.800Z,13.09
2023-01-01T05:26:20.389Z,13.01
2023-01-01T05:28:48.718Z,12.97
2023-01-01T05:31:17.922Z,13.00
2023-01-01T05:33:46.125Z,12.97
2023-01-01T05:36:19.559Z,12.96
2023-01-01T05:38:47.681Z,12.92
2023-01-01T05:41:16.745Z,12.97
2023-01-01T05:43:46.240Z,12.84
2023-01-01T05:46:16.124Z,12.86
2023-01-01T05:48:44.820Z,12.88
2023-01-01T05:51:13.802Z,12.79
2023-01-01T05:53:41.819Z,12.74
2023-01-01T05:56:09.929Z,12.81
2023-01-01T05:58:38.050Z,12.81
2023-01-01T06:01:13.118Z,12.78
2023-01-01T06:03:41.513Z,12.81
2023-01-01T06:06:10.720Z,12.86
2023-01-01T06:08:38.801Z,12.92
2023-01-01T06:11:08.623Z,13.02
2023-01-01T06:13:36.760Z,12.90
2023-01-01T06:16:05.263Z,12.83
2023-01-01T06:18:35.596Z,12.86
2023-01-01T06:21:07.434Z,12.86
2023-01-01T06:23:35.443Z,12.87
2023-01-01T06:26:08.195Z,12.92
2023-01-01T06:28:36.241Z,12.87
2023-01-01T06:31:04.776Z,12.70
2023-01-01T06:33:34.781Z,12.70
2023-01-01T06:36:03.409Z,12.68
2023-01-01T06:38:32.646Z,12.63
2023-01-01T06:41:01.851Z,12.58
2023-01-01T06:43:31.029Z,12.62
2023-01-01T06:46:03.266Z,12.58
2023-01-01T06:48:31.655Z,12.58
2023-01-01T06:51:06.705Z,12.61
2023-01-01T06:53:34.814Z,12.58
2023-01-01T06:56:02.895Z,12.58
2023-01-01T06:58:31.044Z,12.52
2023-01-01T07:01:08.670Z,12.59
2023-01-01T07:03:37.328Z,12.62
2023-01-01T07:06:07.321Z,12.61
2023-01-01T07:08:35.372Z,12.55
2023-01-01T07:11:03.547Z,12.59
2023-01-01T07:13:34.175Z,12.57
2023-01-01T07:16:08.318Z,12.61
2023-01-01T07:18:40.337Z,12.61
2023-01-01T07:21:29.185Z,12.58
2023-01-01T07:23:57.478Z,12.58
2023-01-01T07:26:25.847Z,12.65
2023-01-01T07:28:53.916Z,12.60
2023-01-01T07:31:22.015Z,12.57
2023-01-01T07:33:50.097Z,12.57
2023-01-01T07:36:19.645Z,12.56
2023-01-01T07:38:47.858Z,12.61
2023-01-01T07:41:15.875Z,12.69
2023-01-01T07:43:43.901Z,12.53
2023-01-01T07:46:12.165Z,12.66
2023-01-01T07:48:40.480Z,12.66
2023-01-01T07:51:08.508Z,12.66
2023-01-01T07:53:38.334Z,12.58
2023-01-01T07:56:07.042Z,12.60
2023-01-01T07:58:35.065Z,12.62
2023-01-01T08:01:03.541Z,12.60
2023-01-01T08:03:31.676Z,12.58
2023-01-01T08:05:59.806Z,12.57
2023-01-01T08:08:27.919Z,12.65
2023-01-01T08:11:03.926Z,12.68
2023-01-01T08:13:32.323Z,12.75
2023-01-01T08:16:00.433Z,12.56
2023-01-01T08:18:28.734Z,12.53
2023-01-01T08:20:57.605Z,12.56
2023-01-01T08:23:25.663Z,12.56
2023-01-01T08:25:54.085Z,12.66
2023-01-01T08:28:23.524Z,12.53
2023-01-01T08:30:51.650Z,12.59
2023-01-01T08:33:19.748Z,12.41
2023-01-01T08:35:53.873Z,12.52
2023-01-01T08:38:22.281Z,12.57
2023-01-01T08:40:50.641Z,12.51
2023-01-01T08:43:18.728Z,12.58
2023-01-01T08:45:48.573Z,12.55
2023-01-01T08:48:16.651Z,12.57
2023-01-01T08:50:44.693Z,12.56
2023-01-01T08:53:13.359Z,12.51
2023-01-01T08:55:41.415Z,12.58
2023-01-01T08:58:09.406Z,12.66
2023-01-01T09:00:37.482Z,12.65
2023-01-01T09:03:07.421Z,12.62
2023-01-01T09:05:35.673Z,12.67
2023-01-01T09:08:03.722Z,12.66
2023-01-01T09:10:32.215Z,12.73
2023-01-01T09:13:00.187Z,12.70
2023-01-01T09:15:28.253Z,12.84
2023-01-01T09:17:56.276Z,12.81
2023-01-01T09:20:25.745Z,12.75
2023-01-01T09:22:53.855Z,12.80
2023-01-01T09:25:21.905Z,12.85
2023-01-01T09:27:49.968Z,12.80
2023-01-01T09:30:21.379Z,12.79
2023-01-01T09:32:49.554Z,12.92
2023-01-01T09:35:17.675Z,12.94
2023-01-01T09:37:47.141Z,12.85
2023-01-01T09:40:23.054Z,12.86
2023-01-01T09:42:51.987Z,12.93
2023-01-01T09:45:23.162Z,12.95
2023-01-01T09:47:53.494Z,12.92
2023-01-01T09:50:23.258Z,12.95
2023-01-01T09:52:55.196Z,13.02
2023-01-01T09:55:27.296Z,13.06
2023-01-01T09:57:56.351Z,13.04
2023-01-01T10:00:25.291Z,13.09
2023-01-01T10:03:05.557Z,13.04
2023-01-01T10:05:40.226Z,13.06
2023-01-01T10:08:11.424Z,13.16
2023-01-01T10:10:41.723Z,13.04
2023-01-01T10:13:16.978Z,12.99
2023-01-01T10:15:46.733Z,13.02
2023-01-01T10:18:18.033Z,13.08
2023-01-01T10:20:48.181Z,13.09
2023-01-01T10:23:18.749Z,13.09
2023-01-01T10:25:46.913Z,13.14
2023-01-01T10:28:16.861Z,13.06
2023-01-01T10:30:45.284Z,13.17
2023-01-01T10:33:14.169Z,13.15
2023-01-01T10:35:44.373Z,13.15
2023-01-01T10:38:17.499Z,13.22
2023-01-01T10:40:46.989Z,13.23
2023-01-01T10:43:17.964Z,13.22
2023-01-01T10:45:48.670Z,13.23
2023-01-01T10:48:18.437Z,13.22
2023-01-01T10:50:49.792Z,13.18
2023-01-01T10:53:26.027Z,13.15
2023-01-01T10:56:09.571Z,12.95
2023-01-01T10:58:39.672Z,13.20
2023-01-01T11:01:08.695Z,13.18
2023-01-01T11:03:37.424Z,13.15
2023-01-01T11:06:15.543Z,13.31
2023-01-01T11:08:51.972Z,13.28
2023-01-01T11:11:27.827Z,13.12
2023-01-01T11:13:57.567Z,13.29
2023-01-01T11:16:25.776Z,13.25
2023-01-01T11:18:53.819Z,13.43
2023-01-01T11:21:23.019Z,13.31
2023-01-01T11:23:52.895Z,13.25
2023-01-01T11:26:24.512Z,13.30
2023-01-01T11:29:04.214Z,13.30
2023-01-01T11:31:35.606Z,13.37
2023-01-01T11:34:03.971Z,13.36
2023-01-01T11:36:36.241Z,13.32
2023-01-01T11:39:20.925Z,13.33
2023-01-01T11:41:49.915Z,13.31
2023-01-01T11:44:28.575Z,13.21
2023-01-01T11:46:56.638Z,13.23
2023-01-01T11:49:25.416Z,13.21
2023-01-01T11:51:53.544Z,13.20
2023-01-01T11:54:32.882Z,13.22
2023-01-01T11:57:03.399Z,13.15
2023-01-01T11:59:41.520Z,13.18
2023-01-01T12:02:13.030Z,13.31
2023-01-01T12:04:42.619Z,13.29
2023-01-01T12:07:12.212Z,13.18
2023-01-01T12:09:42.232Z,13.39
2023-01-01T12:12:12.606Z,13.21
2023-01-01T12:14:45.902Z,13.27
2023-01-01T12:17:18.921Z,13.25
2023-01-01T12:19:53.935Z,13.27
2023-01-01T12:22:21.956Z,13.30
2023-01-01T12:24:50.042Z,13.21
2023-01-01T12:27:23.214Z,13.38
2023-01-01T12:30:00.800Z,13.39
2023-01-01T12:32:31.576Z,13.53
2023-01-01T12:35:01.887Z,13.39
2023-01-01T12:37:38.201Z,13.34
2023-01-01T12:40:33.676Z,13.43
2023-01-01T12:43:05.156Z,13.41
2023-01-01T12:45:49.287Z,13.35
2023-01-01T12:48:35.672Z,13.31
2023-01-01T12:51:07.607Z,13.45
2023-01-01T12:53:39.123Z,13.36
2023-01-01T12:56:23.081Z,13.49
2023-01-01T12:58:53.375Z,13.40
2023-01-01T13:01:29.906Z,13.36
2023-01-01T13:04:04.161Z,13.34
2023-01-01T13:06:35.126Z,13.28
2023-01-01T13:09:05.669Z,13.17
2023-01-01T13:11:34.918Z,13.31
2023-01-01T13:14:05.468Z,13.28
2023-01-01T13:16:36.382Z,13.18
2023-01-01T13:19:06.029Z,13.19
2023-01-01T13:21:34.294Z,13.19
2023-01-01T13:24:12.316Z,13.18
2023-01-01T13:26:43.419Z,13.14
2023-01-01T13:29:34.700Z,13.07
2023-01-01T13:32:08.368Z,13.15
2023-01-01T13:34:43.603Z,13.16
2023-01-01T13:37:27.875Z,13.16
2023-01-01T13:39:56.521Z,13.09
2023-01-01T13:42:41.012Z,13.16
2023-01-01T13:45:36.507Z,13.21
2023-01-01T13:48:14.285Z,13.02
2023-01-01T13:50:46.401Z,13.09
2023-01-01T13:53:24.748Z,13.10
2023-01-01T13:56:05.987Z,13.12
2023-01-01T13:58:48.208Z,12.99
2023-01-01T14:01:43.554Z,12.96
2023-01-01T14:04:19.078Z,13.07
2023-01-01T14:06:49.336Z,13.05
2023-01-01T14:09:18.346Z,13.04
2023-01-01T14:11:46.345Z,13.21
2023-01-01T14:14:25.191Z,13.05
2023-01-01T14:16:56.976Z,13.14
2023-01-01T14:19:26.398Z,13.02
2023-01-01T14:21:54.453Z,13.08
2023-01-01T14:24:23.324Z,13.14
2023-01-01T14:26:51.693Z,13.13
2023-01-01T14:29:28.039Z,13.04
2023-01-01T14:31:56.157Z,13.09
2023-01-01T14:34:27.248Z,13.04
2023-01-01T14:36:55.798Z,12.98
2023-01-01T14:39:28.279Z,12.92
2023-01-01T14:41:56.996Z,12.94
2023-01-01T14:44:28.721Z,12.95
2023-01-01T14:46:56.755Z,13.00
2023-01-01T14:49:33.833Z,12.91
2023-01-01T14:52:07.541Z,12.91
2023-01-01T14:54:37.406Z,12.78
2023-01-01T14:57:05.903Z,12.83
2023-01-01T14:59:37.003Z,12.87
2023-01-01T15:02:15.659Z,12.72
2023-01-01T15:04:45.359Z,12.84
2023-01-01T15:07:21.481Z,12.89
2023-01-01T15:09:52.824Z,12.90
2023-01-01T15:12:21.290Z,12.66
2023-01-01T15:14:49.794Z,12.70
2023-01-01T15:17:19.085Z,12.70
2023-01-01T15:19:49.372Z,12.63
2023-01-01T15:22:27.410Z,12.49
2023-01-01T15:24:55.905Z,12.43
2023-01-01T15:27:26.064Z,12.47
2023-01-01T15:29:54.166Z,12.38
2023-01-01T15:32:27.049Z,12.38
2023-01-01T15:34:58.914Z,12.34
2023-01-01T15:37:32.529Z,12.38
2023-01-01T15:40:01.559Z,12.24
2023-01-01T15:42:33.279Z,12.04
2023-01-01T15:45:20.539Z,12.10
2023-01-01T15:47:52.027Z,12.04
2023-01-01T15:50:26.050Z,11.89
2023-01-01T15:52:56.107Z,11.93
2023-01-01T15:55:24.262Z,11.92
2023-01-01T15:57:52.313Z,11.86
2023-01-01T16:00:22.760Z,11.79
2023-01-01T16:02:51.065Z,11.78
2023-01-01T16:05:20.486Z,11.77
2023-01-01T16:07:56.609Z,11.68
2023-01-01T16:10:24.725Z,11.72
2023-01-01T16:12:52.791Z,11.74
2023-01-01T16:15:21.235Z,11.70
2023-01-01T16:17:49.453Z,11.77
2023-01-01T16:20:18.477Z,11.76
2023-01-01T16:22:47.387Z,11.62
2023-01-01T16:25:24.856Z,11.68
2023-01-01T16:27:52.861Z,11.61
2023-01-01T16:30:21.493Z,11.50
2023-01-01T16:32:50.012Z,11.60
2023-01-01T16:35:18.182Z,11.48
2023-01-01T16:37:46.566Z,11.46
2023-01-01T16:40:16.104Z,11.43
2023-01-01T16:42:44.444Z,11.47
2023-01-01T16:45:16.006Z,11.53
2023-01-01T16:47:44.036Z,11.41
2023-01-01T16:50:12.612Z,11.45
2023-01-01T16:52:44.668Z,11.42
2023-01-01T16:55:13.291Z,11.31
2023-01-01T16:57:43.552Z,11.38
2023-01-01T17:00:13.097Z,11.42
2023-01-01T17:02:41.308Z,11.39
2023-01-01T17:05:10.693Z,11.36
2023-01-01T17:07:39.013Z,11.33
2023-01-01T17:10:07.790Z,11.39
2023-01-01T17:12:35.845Z,11.33
2023-01-01T17:15:05.960Z,11.37
2023-01-01T17:17:34.138Z,11.35
2023-01-01T17:20:02.229Z,11.43
2023-01-01T17:22:34.351Z,11.31
2023-01-01T17:25:02.657Z,11.18
2023-01-01T17:27:30.722Z,11.32
2023-01-01T17:29:58.815Z,11.27
2023-01-01T17:32:28.281Z,11.17
2023-01-01T17:34:56.588Z,11.15
2023-01-01T17:37:24.696Z,11.09
2023-01-01T17:39:52.712Z,11.01
2023-01-01T17:42:21.241Z,10.93
2023-01-01T17:44:49.506Z,10.99
2023-01-01T17:47:17.563Z,10.95
2023-01-01T17:49:48.667Z,11.11
2023-01-01T17:52:16.812Z,11.02
2023-01-01T17:54:44.843Z,11.02
2023-01-01T17:57:12.903Z,11.05
2023-01-01T17:59:40.951Z,10.99
2023-01-01T18:02:12.925Z,11.02
2023-01-01T18:04:43.808Z,11.00
2023-01-01T18:07:13.317Z,11.01
2023-01-01T18:09:41.369Z,10.94
2023-01-01T18:12:10.209Z,10.90
2023-01-01T18:14:38.230Z,10.84
2023-01-01T18:17:06.264Z,10.95
2023-01-01T18:19:35.391Z,10.80
2023-01-01T18:22:04.177Z,11.00
2023-01-01T18:24:33.740Z,10.90
2023-01-01T18:27:01.956Z,10.83
2023-01-01T18:29:30.393Z,10.91
2023-01-01T18:31:58.449Z,10.86
2023-01-01T18:34:26.704Z,10.94
2023-01-01T18:36:55.989Z,10.85
2023-01-01T18:39:24.529Z,10.75
2023-01-01T18:42:05.533Z,10.84
2023-01-01T18:44:33.903Z,10.72
2023-01-01T18:47:06.141Z,10.73
2023-01-01T18:49:34.503Z,10.73
2023-01-01T18:52:12.099Z,10.67
2023-01-01T18:54:40.227Z,10.80
2023-01-01T18:57:13.497Z,10.80
2023-01-01T18:59:41.855Z,10.85
2023-01-01T19:02:20.715Z,10.75
2023-01-01T19:04:49.020Z,10.69
2023-01-01T19:07:17.092Z,10.70
2023-01-01T19:09:45.261Z,10.74
2023-01-01T19:12:17.465Z,10.82
2023-01-01T19:14:45.969Z,10.71
2023-01-01T19:17:15.250Z,10.71
2023-01-01T19:19:43.252Z,10.63
2023-01-01T19:22:18.396Z,10.64
2023-01-01T19:24:46.501Z,10.60
2023-01-01T19:27:17.321Z,10.70
2023-01-01T19:29:46.343Z,10.66
2023-01-01T19:32:14.378Z,10.75
2023-01-01T19:34:42.423Z,10.70
2023-01-01T19:37:10.722Z,10.73
2023-01-01T19:39:43.861Z,10.69
2023-01-01T19:42:12.552Z,10.85
2023-01-01T19:44:42.003Z,10.81
2023-01-01T19:47:10.656Z,10.90
2023-01-01T19:49:38.685Z,10.77
2023-01-01T19:52:07.411Z,10.82
2023-01-01T19:54:36.065Z,10.88
2023-01-01T19:57:04.286Z,10.86
2023-01-01T19:59:33.444Z,10.73
2023-01-01T20:02:43.384Z,10.73
2023-01-01T20:04:52.566Z,10.74
2023-01-01T20:07:20.701Z,10.78
2023-01-01T20:09:49.293Z,10.90
2023-01-01T20:12:17.692Z,10.83
2023-01-01T20:14:45.854Z,10.92
2023-01-01T20:17:18.903Z,10.88
2023-01-01T20:19:46.901Z,10.90
2023-01-01T20:22:17.622Z,10.80
2023-01-01T20:24:46.019Z,10.84
2023-01-01T20:27:14.528Z,10.81
2023-01-01T20:29:41.608Z,10.78
2023-01-01T20:32:12.981Z,10.86
2023-01-01T20:34:42.962Z,10.98
2023-01-01T20:37:28.457Z,11.04
2023-01-01T20:39:56.578Z,11.10
2023-01-01T20:42:24.833Z,10.93
2023-01-01T20:44:55.701Z,10.99
2023-01-01T20:47:23.982Z,11.00
2023-01-01T20:49:54.199Z,11.05
2023-01-01T20:52:22.663Z,11.06
2023-01-01T20:54:51.586Z,11.22
2023-01-01T20:57:19.833Z,11.15
2023-01-01T20:59:47.921Z,11.16
2023-01-01T21:02:16.169Z,11.14
2023-01-01T21:04:44.405Z,11.18
2023-01-01T21:07:13.931Z,11.18
2023-01-01T21:09:42.522Z,11.27
2023-01-01T21:12:11.838Z,11.26
2023-01-01T21:14:40.024Z,11.27
2023-01-01T21:17:18.895Z,11.35
2023-01-01T21:19:49.641Z,11.34
2023-01-01T21:22:19.695Z,11.51
2023-01-01T21:24:53.742Z,11.49
2023-01-01T21:27:27.706Z,11.46
2023-01-01T21:29:57.491Z,11.48
2023-01-01T21:32:26.255Z,11.54
2023-01-01T21:34:54.982Z,11.63
2023-01-01T21:37:44.481Z,11.50
2023-01-01T21:40:32.510Z,11.47
2023-01-01T21:43:19.277Z,11.47
2023-01-01T21:45:47.990Z,11.46
2023-01-01T21:48:16.981Z,11.50
2023-01-01T21:50:46.894Z,11.52
2023-01-01T21:53:19.028Z,11.57
2023-01-01T21:55:53.761Z,11.55
2023-01-01T21:58:41.208Z,11.68
2023-01-01T22:01:31.226Z,11.58
2023-01-01T22:04:00.476Z,11.57
2023-01-01T22:06:34.469Z,11.70
2023-01-01T22:09:03.955Z,11.77
2023-01-01T22:11:32.795Z,11.74
2023-01-01T22:14:00.911Z,11.66
2023-01-01T22:16:30.159Z,11.67
2023-01-01T22:18:58.752Z,11.72
2023-01-01T22:21:26.919Z,11.75
2023-01-01T22:23:56.069Z,11.88
2023-01-01T22:26:27.752Z,11.77
2023-01-01T22:28:59.001Z,11.73
2023-01-01T22:31:29.909Z,11.80
2023-01-01T22:34:00.445Z,11.79
2023-01-01T22:36:30.266Z,11.80
2023-01-01T22:38:59.591Z,11.81
2023-01-01T22:41:29.240Z,11.80
2023-01-01T22:43:59.361Z,11.78
2023-01-01T22:46:28.820Z,11.89
2023-01-01T22:48:59.151Z,11.97
2023-01-01T22:51:28.558Z,11.92
2023-01-01T22:53:56.569Z,12.07
2023-01-01T22:56:24.551Z,12.14
2023-01-01T22:58:57.264Z,12.14
2023-01-01T23:01:25.700Z,12.13
2023-01-01T23:03:53.926Z,12.12
2023-01-01T23:06:21.962Z,12.20
2023-01-01T23:08:50.690Z,12.09
2023-01-01T23:11:18.875Z,12.22
2023-01-01T23:14:05.461Z,12.21
2023-01-01T23:16:34.960Z,12.38
2023-01-01T23:19:03.182Z,12.30
2023-01-01T23:21:31.139Z,12.45
2023-01-01T23:23:59.649Z,12.49
2023-01-01T23:26:27.777Z,12.43
2023-01-01T23:28:55.954Z,12.42
2023-01-01T23:31:25.504Z,12.36
2023-01-01T23:33:55.166Z,12.32
2023-01-01T23:36:23.197Z,12.42
2023-01-01T23:38:52.564Z,12.52
2023-01-01T23:41:20.610Z,12.46
2023-01-01T23:43:48.580Z,12.47
2023-01-01T23:46:17.028Z,12.53
2023-01-01T23:48:45.036Z,12.49
2023-01-01T23:51:14.592Z,12.53
2023-01-01T23:53:43.163Z,12.58
2023-01-01T23:56:11.149Z,12.61
2023-01-01T23:58:39.183Z,12.71
